createdAt,value
2018-12-14T00:00:15.748Z,48.68
2018-12-14T00:02:43.595Z,41.45
2018-12-14T00:05:11.428Z,41.50
2018-12-14T00:07:39.244Z,59.33
2018-12-14T00:10:07.812Z,46.08
2018-12-14T00:12:35.676Z,51.42
2018-12-14T00:15:04.000Z,61.18
2018-12-14T00:17:31.832Z,52.33
2018-12-14T00:19:59.739Z,50.17
2018-12-14T00:22:27.668Z,46.80
2018-12-14T00:24:55.573Z,46.48
2018-12-14T00:27:23.658Z,48.33
2018-12-14T00:29:51.524Z,46.55
2018-12-14T00:32:19.591Z,47.17
2018-12-14T00:34:47.448Z,52.70
2018-12-14T00:37:15.275Z,51.98
2018-12-14T00:39:43.087Z,57.03
2018-12-14T00:42:10.923Z,55.35
2018-12-14T00:44:38.840Z,50.48
2018-12-14T00:47:07.443Z,50.85
2018-12-14T00:49:35.464Z,48.70
2018-12-14T00:52:03.287Z,52.20
2018-12-14T00:54:31.075Z,54.55
2018-12-14T00:56:58.924Z,49.58
2018-12-14T00:59:26.736Z,47.83
2018-12-14T01:01:54.669Z,53.08
2018-12-14T01:04:22.468Z,50.58
2018-12-14T01:06:50.313Z,45.33
2018-12-14T01:09:18.217Z,46.75
2018-12-14T01:11:46.153Z,44.58
2018-12-14T01:14:14.072Z,44.88
2018-12-14T01:16:41.977Z,51.50
2018-12-14T01:19:09.887Z,42.38
2018-12-14T01:21:37.907Z,53.55
2018-12-14T01:24:05.719Z,56.73
2018-12-14T01:26:33.654Z,51.05
2018-12-14T01:29:01.460Z,53.33
2018-12-14T01:31:29.283Z,48.85
2018-12-14T01:33:57.104Z,45.50
2018-12-14T01:36:24.931Z,47.33
2018-12-14T01:38:52.735Z,43.23
2018-12-14T01:41:20.568Z,43.25
2018-12-14T01:43:48.381Z,44.42
2018-12-14T01:46:16.192Z,41.60
2018-12-14T01:48:43.999Z,94.92
2018-12-14T01:51:11.839Z,76.87
2018-12-14T01:53:39.643Z,97.37
2018-12-14T01:56:07.479Z,55.60
2018-12-14T01:58:35.387Z,53.28
2018-12-14T02:01:03.228Z,55.28
2018-12-14T02:03:31.128Z,49.40
2018-12-14T02:05:59.210Z,45.05
2018-12-14T02:08:27.056Z,41.65
2018-12-14T02:10:54.880Z,44.50
2018-12-14T02:13:22.703Z,45.63
2018-12-14T02:15:50.512Z,42.40
2018-12-14T02:18:19.436Z,189.57
2018-12-14T02:20:47.261Z,143.22
2018-12-14T02:23:15.094Z,122.70
2018-12-14T02:25:42.993Z,77.32
2018-12-14T02:28:10.830Z,56.70
2018-12-14T02:30:40.549Z,43.83
2018-12-14T02:33:08.606Z,41.48
2018-12-14T02:35:36.576Z,44.80
2018-12-14T02:38:04.670Z,51.00
2018-12-14T02:40:32.525Z,49.98
2018-12-14T02:43:00.445Z,44.18
2018-12-14T02:45:28.451Z,47.65
2018-12-14T02:47:56.274Z,45.38
2018-12-14T02:50:24.193Z,44.50
2018-12-14T02:52:52.020Z,44.33
2018-12-14T02:55:20.325Z,45.05
2018-12-14T02:57:48.584Z,41.35
2018-12-14T03:00:16.780Z,44.98
2018-12-14T03:02:44.976Z,44.70
2018-12-14T03:05:13.250Z,40.67
2018-12-14T03:07:41.521Z,39.55
2018-12-14T03:10:09.349Z,40.17
2018-12-14T03:12:37.660Z,44.67
2018-12-14T03:15:06.300Z,46.02
2018-12-14T03:17:34.538Z,47.50
2018-12-14T03:20:03.420Z,49.00
2018-12-14T03:22:31.988Z,48.30
2018-12-14T03:25:00.179Z,51.83
2018-12-14T03:27:28.489Z,43.13
2018-12-14T03:29:56.748Z,53.17
2018-12-14T03:32:24.970Z,42.80
2018-12-14T03:34:53.136Z,43.17
2018-12-14T03:37:21.466Z,47.53
2018-12-14T03:39:49.797Z,43.55
2018-12-14T03:42:18.058Z,41.85
2018-12-14T03:44:46.253Z,38.33
2018-12-14T03:47:14.548Z,48.25
2018-12-14T03:49:42.770Z,44.73
2018-12-14T03:52:11.087Z,48.50
2018-12-14T03:54:39.356Z,43.45
2018-12-14T03:57:07.558Z,52.33
2018-12-14T03:59:35.763Z,44.50
2018-12-14T04:02:04.167Z,63.68
2018-12-14T04:04:32.408Z,55.50
2018-12-14T04:07:00.634Z,58.35
2018-12-14T04:09:28.829Z,62.53
2018-12-14T04:11:57.097Z,58.50
2018-12-14T04:14:25.255Z,46.98
2018-12-14T04:16:53.488Z,57.08
2018-12-14T04:19:21.752Z,51.08
2018-12-14T04:21:49.734Z,51.75
2018-12-14T04:24:18.148Z,45.17
2018-12-14T04:26:46.413Z,48.13
2018-12-14T04:29:14.606Z,45.95
2018-12-14T04:31:42.907Z,42.65
2018-12-14T04:34:11.182Z,160.15
2018-12-14T04:36:39.342Z,164.67
2018-12-14T04:39:07.968Z,77.45
2018-12-14T04:41:36.290Z,59.67
2018-12-14T04:44:04.553Z,50.60
2018-12-14T04:46:32.752Z,45.17
2018-12-14T04:49:01.056Z,43.90
2018-12-14T04:51:29.370Z,38.75
2018-12-14T04:53:57.621Z,43.23
2018-12-14T04:56:25.910Z,49.53
2018-12-14T04:58:54.171Z,36.20
2018-12-14T05:01:22.405Z,41.23
2018-12-14T05:03:50.613Z,44.05
2018-12-14T05:06:18.993Z,44.93
2018-12-14T05:08:47.262Z,59.65
2018-12-14T05:11:15.457Z,52.75
2018-12-14T05:13:43.698Z,49.27
2018-12-14T05:16:11.979Z,50.28
2018-12-14T05:18:40.192Z,46.53
2018-12-14T05:21:08.510Z,46.58
2018-12-14T05:23:36.831Z,50.78
2018-12-14T05:26:05.152Z,47.23
2018-12-14T05:28:33.081Z,47.35
2018-12-14T05:31:01.001Z,54.48
2018-12-14T05:33:28.916Z,75.80
2018-12-14T05:35:56.841Z,82.45
2018-12-14T05:38:24.777Z,73.87
2018-12-14T05:40:52.723Z,63.40
2018-12-14T05:43:20.656Z,73.17
2018-12-14T05:45:48.592Z,64.72
2018-12-14T05:48:16.549Z,73.55
2018-12-14T05:50:44.474Z,72.00
2018-12-14T05:53:12.402Z,64.25
2018-12-14T05:55:40.345Z,55.95
2018-12-14T05:58:08.272Z,54.70
2018-12-14T06:00:36.316Z,62.27
2018-12-14T06:04:44.931Z,51.20
2018-12-14T06:07:13.142Z,49.55
2018-12-14T06:09:41.333Z,50.28
2018-12-14T06:12:09.953Z,51.30
2018-12-14T06:14:38.095Z,61.45
2018-12-14T06:17:06.391Z,49.27
2018-12-14T06:19:34.651Z,52.35
2018-12-14T06:22:02.877Z,53.78
2018-12-14T06:24:31.087Z,60.12
2018-12-14T06:26:59.377Z,68.87
2018-12-14T06:29:27.736Z,66.25
2018-12-14T06:31:55.928Z,63.15
2018-12-14T06:34:24.231Z,89.70
2018-12-14T06:36:53.726Z,126.62
2018-12-14T06:39:22.220Z,62.00
2018-12-14T06:41:50.589Z,88.30
2018-12-14T06:44:18.759Z,77.05
2018-12-14T06:46:46.985Z,81.17
2018-12-14T06:49:15.156Z,85.30
2018-12-14T06:51:43.376Z,80.97
2018-12-14T06:54:11.697Z,84.47
2018-12-14T06:56:39.965Z,85.67
2018-12-14T06:59:08.168Z,54.87
2018-12-14T07:01:36.458Z,53.17
2018-12-14T07:04:04.749Z,48.33
2018-12-14T07:06:32.988Z,54.85
2018-12-14T07:09:01.316Z,50.52
2018-12-14T07:11:29.580Z,46.25
2018-12-14T07:13:57.801Z,59.83
2018-12-14T07:16:25.968Z,90.47
2018-12-14T07:18:54.223Z,65.28
2018-12-14T07:21:22.517Z,66.47
2018-12-14T07:23:50.789Z,57.23
2018-12-14T07:26:19.000Z,64.27
2018-12-14T07:28:47.208Z,79.12
2018-12-14T07:31:15.498Z,102.40
2018-12-14T07:33:43.630Z,65.20
2018-12-14T07:36:11.852Z,71.37
2018-12-14T07:38:40.065Z,72.30
2018-12-14T07:41:08.382Z,69.93
2018-12-14T07:43:36.649Z,64.40
2018-12-14T07:46:04.869Z,78.67
2018-12-14T07:48:33.182Z,68.27
2018-12-14T07:51:01.400Z,68.03
2018-12-14T07:53:29.584Z,66.50
2018-12-14T07:55:57.898Z,68.10
2018-12-14T07:58:26.219Z,69.53
2018-12-14T08:00:54.380Z,58.60
2018-12-14T08:03:22.605Z,58.53
2018-12-14T08:05:50.815Z,66.97
2018-12-14T08:08:19.144Z,191.87
2018-12-14T08:10:47.348Z,62.00
2018-12-14T08:13:15.743Z,56.80
2018-12-14T08:15:44.011Z,63.60
2018-12-14T08:18:12.124Z,65.17
2018-12-14T08:20:40.316Z,79.33
2018-12-14T08:23:08.580Z,71.07
2018-12-14T08:25:36.942Z,68.63
2018-12-14T08:28:05.205Z,70.97
2018-12-14T08:30:33.427Z,73.87
2018-12-14T08:33:01.839Z,65.10
2018-12-14T08:35:30.120Z,64.80
2018-12-14T08:37:58.478Z,68.60
2018-12-14T08:40:26.902Z,67.57
2018-12-14T08:42:55.250Z,63.53
2018-12-14T08:45:23.602Z,68.50
2018-12-14T08:47:51.970Z,66.40
2018-12-14T08:50:20.184Z,68.40
2018-12-14T08:52:49.313Z,61.43
2018-12-14T08:55:17.527Z,67.80
2018-12-14T08:57:45.908Z,68.67
2018-12-14T09:00:14.180Z,69.27
2018-12-14T09:02:42.448Z,62.50
2018-12-14T09:05:10.769Z,73.27
2018-12-14T09:07:39.088Z,75.83
2018-12-14T09:10:07.409Z,67.63
2018-12-14T09:12:35.819Z,82.27
2018-12-14T09:15:04.192Z,71.93
2018-12-14T09:17:33.580Z,71.00
2018-12-14T09:20:02.612Z,76.53
2018-12-14T09:22:30.657Z,75.00
2018-12-14T09:24:59.960Z,68.83
2018-12-14T09:27:28.296Z,63.80
2018-12-14T09:29:57.210Z,79.97
2018-12-14T09:32:26.104Z,66.20
2018-12-14T09:34:54.479Z,68.03
2018-12-14T09:37:23.416Z,70.60
2018-12-14T09:39:51.668Z,65.13
2018-12-14T09:42:20.130Z,94.77
2018-12-14T09:44:48.433Z,95.50
2018-12-14T09:47:17.356Z,75.57
2018-12-14T09:49:45.557Z,78.77
2018-12-14T09:52:13.872Z,71.33
2018-12-14T09:54:42.138Z,83.20
2018-12-14T09:57:10.358Z,80.83
2018-12-14T09:59:38.771Z,75.67
2018-12-14T10:02:07.390Z,69.53
2018-12-14T10:04:35.476Z,67.20
2018-12-14T10:07:03.797Z,75.33
2018-12-14T10:09:32.060Z,61.17
2018-12-14T10:12:00.253Z,72.47
2018-12-14T10:14:28.457Z,67.57
2018-12-14T10:16:56.674Z,57.50
2018-12-14T10:19:24.896Z,59.83
2018-12-14T10:21:53.128Z,63.20
2018-12-14T10:24:21.435Z,67.60
2018-12-14T10:26:49.696Z,67.50
2018-12-14T10:29:17.776Z,72.07
2018-12-14T10:31:46.013Z,91.07
2018-12-14T10:34:14.314Z,102.00
2018-12-14T10:36:42.577Z,77.37
2018-12-14T10:39:10.785Z,53.50
2018-12-14T10:41:39.075Z,102.53
2018-12-14T10:44:07.773Z,58.20
2018-12-14T10:46:36.010Z,50.10
2018-12-14T10:49:04.441Z,61.90
2018-12-14T10:51:32.948Z,118.50
2018-12-14T10:54:01.101Z,57.77
2018-12-14T10:56:29.396Z,57.80
2018-12-14T10:58:57.668Z,75.07
2018-12-14T11:01:31.055Z,71.70
2018-12-14T11:03:59.376Z,68.60
2018-12-14T11:06:27.636Z,59.47
2018-12-14T11:08:55.916Z,48.93
2018-12-14T11:11:24.143Z,53.60
2018-12-14T11:13:52.376Z,53.00
2018-12-14T11:16:20.604Z,78.07
2018-12-14T11:18:48.840Z,48.00
2018-12-14T11:21:17.489Z,81.53
2018-12-14T11:23:45.837Z,44.30
2018-12-14T11:26:14.203Z,38.33
2018-12-14T11:28:42.479Z,35.50
2018-12-14T11:31:10.641Z,52.00
2018-12-14T11:33:38.807Z,47.97
2018-12-14T11:36:07.037Z,42.93
2018-12-14T11:38:35.308Z,37.50
2018-12-14T11:41:03.520Z,40.73
2018-12-14T11:43:31.898Z,54.73
2018-12-14T11:46:00.165Z,62.80
2018-12-14T11:48:28.362Z,32.17
2018-12-14T11:50:56.590Z,134.50
2018-12-14T11:53:24.796Z,42.53
2018-12-14T11:55:53.100Z,39.47
2018-12-14T11:58:21.263Z,47.30
2018-12-14T12:00:49.664Z,42.67
2018-12-14T12:03:17.872Z,46.73
2018-12-14T12:05:45.980Z,39.60
2018-12-14T12:08:14.499Z,34.33
2018-12-14T12:10:42.920Z,32.43
2018-12-14T12:13:11.188Z,32.17
2018-12-14T12:15:39.388Z,38.17
2018-12-14T12:18:07.681Z,54.77
2018-12-14T12:20:35.928Z,78.03
2018-12-14T12:23:04.138Z,52.10
2018-12-14T12:25:32.441Z,51.43
2018-12-14T12:28:00.704Z,43.67
2018-12-14T12:30:28.721Z,53.67
2018-12-14T12:32:57.000Z,55.33
2018-12-14T12:35:25.167Z,48.00
2018-12-14T12:37:53.356Z,62.90
2018-12-14T12:40:21.660Z,54.87
2018-12-14T12:42:49.908Z,52.93
2018-12-14T12:45:18.203Z,49.70
2018-12-14T12:47:46.464Z,44.83
2018-12-14T12:50:14.724Z,40.77
2018-12-14T12:52:43.038Z,40.20
2018-12-14T12:55:11.224Z,22.17
2018-12-14T12:57:39.445Z,17.57
2018-12-14T13:00:08.085Z,113.90
2018-12-14T13:02:36.261Z,22.97
2018-12-14T13:05:04.508Z,100.70
2018-12-14T13:07:32.739Z,23.33
2018-12-14T13:10:00.902Z,65.30
2018-12-14T13:12:29.222Z,31.67
2018-12-14T13:14:57.542Z,27.47
2018-12-14T13:17:25.704Z,43.43
2018-12-14T13:19:53.899Z,32.23
2018-12-14T13:22:22.201Z,35.13
2018-12-14T13:24:50.465Z,32.00
2018-12-14T13:27:20.373Z,27.80
2018-12-14T13:29:48.788Z,52.73
2018-12-14T13:32:17.088Z,27.53
2018-12-14T13:34:45.508Z,30.63
2018-12-14T13:37:13.641Z,27.27
2018-12-14T13:39:41.900Z,30.83
2018-12-14T13:42:10.101Z,21.60
2018-12-14T13:44:38.691Z,51.13
2018-12-14T13:47:06.936Z,41.10
2018-12-14T13:49:35.125Z,30.07
2018-12-14T13:52:03.351Z,72.63
2018-12-14T13:54:31.620Z,29.77
2018-12-14T13:56:59.811Z,22.47
2018-12-14T13:59:28.110Z,23.40
2018-12-14T14:01:56.430Z,32.43
2018-12-14T14:04:24.646Z,35.87
2018-12-14T14:06:52.900Z,37.93
2018-12-14T14:09:21.337Z,46.20
2018-12-14T14:11:49.536Z,73.17
2018-12-14T14:14:17.831Z,66.47
2018-12-14T14:16:47.050Z,61.63
2018-12-14T14:19:15.128Z,71.10
2018-12-14T14:21:43.436Z,62.27
2018-12-14T14:24:11.657Z,83.40
2018-12-14T14:26:44.446Z,59.50
2018-12-14T14:29:10.080Z,50.83
2018-12-14T14:31:38.292Z,38.40
2018-12-14T14:34:06.544Z,33.00
2018-12-14T14:36:34.753Z,34.67
2018-12-14T14:39:04.342Z,45.83
2018-12-14T14:41:32.608Z,53.10
2018-12-14T14:44:00.809Z,27.67
2018-12-14T14:46:29.108Z,38.10
2018-12-14T14:48:57.427Z,23.07
2018-12-14T14:51:25.948Z,31.20
2018-12-14T14:53:54.268Z,33.83
2018-12-14T14:56:22.589Z,31.07
2018-12-14T14:58:50.724Z,104.90
2018-12-14T15:01:18.985Z,34.90
2018-12-14T15:03:47.248Z,52.60
2018-12-14T15:06:15.412Z,24.47
2018-12-14T15:08:43.660Z,15.40
2018-12-14T15:11:11.884Z,19.23
2018-12-14T15:13:40.127Z,10.83
2018-12-14T15:16:08.603Z,23.90
2018-12-14T15:18:36.812Z,17.30
2018-12-14T15:21:05.033Z,19.77
2018-12-14T15:23:33.224Z,17.53
2018-12-14T15:26:01.409Z,22.40
2018-12-14T15:28:29.692Z,25.30
2018-12-14T15:30:57.918Z,18.53
2018-12-14T15:33:26.105Z,12.10
2018-12-14T15:35:54.409Z,22.03
2018-12-14T15:38:22.625Z,16.40
2018-12-14T15:40:50.998Z,21.97
2018-12-14T15:43:19.165Z,31.67
2018-12-14T15:45:47.308Z,25.00
2018-12-14T15:48:15.552Z,12.30
2018-12-14T15:50:44.620Z,12.37
2018-12-14T15:53:12.796Z,13.93
2018-12-14T15:55:40.888Z,14.27
2018-12-14T15:58:09.133Z,15.03
2018-12-14T16:00:37.411Z,14.67
2018-12-14T16:03:05.714Z,17.17
2018-12-14T16:05:34.052Z,18.30
2018-12-14T16:08:02.373Z,15.40
2018-12-14T16:10:30.690Z,20.90
2018-12-14T16:12:58.944Z,13.23
2018-12-14T16:15:27.234Z,14.37
2018-12-14T16:17:55.454Z,13.77
2018-12-14T16:20:23.616Z,18.27
2018-12-14T16:22:51.848Z,17.10
2018-12-14T16:25:20.083Z,39.50
2018-12-14T16:27:48.264Z,65.00
2018-12-14T16:30:16.448Z,61.23
2018-12-14T16:32:44.695Z,55.20
2018-12-14T16:35:12.893Z,42.30
2018-12-14T16:37:41.161Z,49.53
2018-12-14T16:40:09.448Z,104.40
2018-12-14T16:42:38.460Z,53.97
2018-12-14T16:45:06.976Z,73.30
2018-12-14T16:47:35.142Z,89.77
2018-12-14T16:50:03.461Z,79.37
2018-12-14T16:52:31.672Z,66.27
2018-12-14T16:55:00.056Z,74.70
2018-12-14T16:57:28.220Z,103.97
2018-12-14T16:59:56.420Z,154.67
2018-12-14T17:02:24.718Z,161.00
2018-12-14T17:04:52.979Z,104.23
2018-12-14T17:07:21.186Z,78.73
2018-12-14T17:09:49.480Z,69.97
2018-12-14T17:12:17.741Z,68.20
2018-12-14T17:14:45.940Z,66.47
2018-12-14T17:17:14.188Z,42.97
2018-12-14T17:19:42.461Z,60.90
2018-12-14T17:22:10.624Z,53.17
2018-12-14T17:24:38.808Z,64.43
2018-12-14T17:27:07.118Z,68.03
2018-12-14T17:29:35.339Z,66.93
2018-12-14T17:32:03.505Z,70.43
2018-12-14T17:34:31.698Z,83.17
2018-12-14T17:37:00.198Z,61.77
2018-12-14T17:39:28.440Z,48.67
2018-12-14T17:41:57.393Z,47.57
2018-12-14T17:44:25.553Z,56.83
2018-12-14T17:46:54.082Z,61.77
2018-12-14T17:49:22.248Z,68.33
2018-12-14T17:51:50.408Z,69.53
2018-12-14T17:54:18.644Z,37.23
2018-12-14T17:56:46.809Z,29.13
2018-12-14T17:59:15.024Z,28.43
2018-12-14T18:01:43.407Z,52.77
2018-12-14T18:04:11.537Z,71.47
2018-12-14T18:06:39.741Z,73.10
2018-12-14T18:09:07.910Z,75.30
2018-12-14T18:11:36.187Z,81.57
2018-12-14T18:14:04.455Z,72.50
2018-12-14T18:16:33.680Z,90.40
2018-12-14T18:19:02.424Z,93.13
2018-12-14T18:21:30.667Z,117.97
2018-12-14T18:23:58.920Z,107.90
2018-12-14T18:26:27.136Z,107.37
2018-12-14T18:28:55.427Z,110.87
2018-12-14T18:31:23.647Z,96.43
2018-12-14T18:33:51.792Z,122.80
2018-12-14T18:36:20.041Z,133.00
2018-12-14T18:38:48.307Z,112.50
2018-12-14T18:41:16.578Z,93.60
2018-12-14T18:43:44.776Z,94.57
2018-12-14T18:46:13.039Z,103.73
2018-12-14T18:48:41.225Z,101.73
2018-12-14T18:51:09.431Z,110.07
2018-12-14T18:53:37.779Z,147.47
2018-12-14T18:56:05.946Z,144.67
2018-12-14T18:58:34.097Z,124.00
2018-12-14T19:01:02.332Z,144.17
2018-12-14T19:03:30.518Z,115.30
2018-12-14T19:05:58.738Z,107.63
2018-12-14T19:08:27.054Z,97.43
2018-12-14T19:10:55.170Z,91.20
2018-12-14T19:13:23.416Z,95.87
2018-12-14T19:15:51.710Z,91.10
2018-12-14T19:18:19.979Z,78.37
2018-12-14T19:20:48.168Z,91.27
2018-12-14T19:23:19.600Z,62.27
2018-12-14T19:25:46.642Z,59.03
2018-12-14T19:28:14.949Z,63.07
2018-12-14T19:30:43.138Z,141.23
2018-12-14T19:33:11.405Z,119.57
2018-12-14T19:35:39.602Z,78.37
2018-12-14T19:38:08.103Z,92.43
2018-12-14T19:40:36.394Z,80.10
2018-12-14T19:43:04.742Z,70.83
2018-12-14T19:45:33.000Z,93.17
2018-12-14T19:48:01.279Z,92.43
2018-12-14T19:50:29.397Z,145.67
2018-12-14T19:52:57.561Z,107.33
2018-12-14T19:55:25.830Z,105.50
2018-12-14T19:57:55.063Z,108.67
2018-12-14T20:00:23.308Z,107.20
2018-12-14T20:02:51.602Z,111.10
2018-12-14T20:05:19.764Z,93.80
2018-12-14T20:07:47.964Z,97.43
2018-12-14T20:10:16.261Z,78.87
2018-12-14T20:12:44.382Z,93.40
2018-12-14T20:15:12.628Z,100.30
2018-12-14T20:17:40.841Z,99.50
2018-12-14T20:20:09.087Z,94.80
2018-12-14T20:22:37.284Z,80.53
2018-12-14T20:25:05.889Z,99.73
2018-12-14T20:27:34.101Z,102.47
2018-12-14T20:30:02.264Z,117.33
2018-12-14T20:32:30.642Z,133.83
2018-12-14T20:34:59.053Z,162.13
2018-12-14T20:37:27.196Z,120.47
2018-12-14T20:39:55.448Z,126.67
2018-12-14T20:42:23.668Z,86.13
2018-12-14T20:44:51.877Z,81.40
2018-12-14T20:47:20.162Z,69.77
2018-12-14T20:49:48.421Z,76.43
2018-12-14T20:52:17.436Z,79.57
2018-12-14T20:54:45.651Z,91.43
2018-12-14T20:57:13.889Z,91.20
2018-12-14T20:59:42.112Z,86.67
2018-12-14T21:02:10.304Z,88.97
2018-12-14T21:04:38.547Z,97.10
2018-12-14T21:07:06.776Z,106.00
2018-12-14T21:09:35.046Z,101.70
2018-12-14T21:12:03.157Z,77.93
2018-12-14T21:14:31.627Z,69.43
2018-12-14T21:17:00.002Z,75.00
2018-12-14T21:19:28.227Z,64.93
2018-12-14T21:21:56.501Z,76.97
2018-12-14T21:24:24.769Z,80.40
2018-12-14T21:26:52.986Z,86.13
2018-12-14T21:29:21.252Z,84.93
2018-12-14T21:31:49.418Z,89.17
2018-12-14T21:34:17.647Z,83.50
2018-12-14T21:36:45.869Z,76.63
2018-12-14T21:39:14.112Z,61.50
2018-12-14T21:41:42.319Z,69.53
2018-12-14T21:44:10.628Z,72.53
2018-12-14T21:46:38.901Z,172.93
2018-12-14T21:49:07.096Z,80.93
2018-12-14T21:51:35.387Z,76.77
2018-12-14T21:54:03.652Z,85.50
2018-12-14T21:56:31.844Z,93.40
2018-12-14T21:59:00.115Z,109.40
2018-12-14T22:01:28.467Z,105.40
2018-12-14T22:03:56.689Z,90.70
2018-12-14T22:06:24.929Z,88.10
2018-12-14T22:08:53.229Z,86.80
2018-12-14T22:11:21.392Z,126.47
2018-12-14T22:13:49.572Z,259.00
2018-12-14T22:16:18.592Z,308.23
2018-12-14T22:18:47.011Z,235.20
2018-12-14T22:21:15.278Z,116.50
2018-12-14T22:23:43.468Z,86.33
2018-12-14T22:26:11.771Z,81.20
2018-12-14T22:28:39.937Z,94.93
2018-12-14T22:31:07.920Z,93.93
2018-12-14T22:33:36.331Z,89.00
2018-12-14T22:36:04.592Z,82.90
2018-12-14T22:38:32.794Z,72.73
2018-12-14T22:41:01.016Z,72.80
2018-12-14T22:43:29.210Z,65.50
2018-12-14T22:45:57.381Z,62.70
2018-12-14T22:48:25.564Z,79.83
2018-12-14T22:50:53.970Z,68.90
2018-12-14T22:53:22.132Z,65.77
2018-12-14T22:55:50.357Z,61.43
2018-12-14T22:58:18.577Z,75.70
2018-12-14T23:00:53.976Z,66.90
2018-12-14T23:03:22.141Z,75.63
2018-12-14T23:05:50.622Z,64.10
2018-12-14T23:08:18.879Z,63.70
2018-12-14T23:10:47.960Z,66.17
2018-12-14T23:13:16.280Z,73.73
2018-12-14T23:15:44.534Z,71.10
2018-12-14T23:18:12.820Z,73.87
2018-12-14T23:20:40.985Z,59.27
2018-12-14T23:23:09.476Z,65.23
2018-12-14T23:25:37.725Z,64.07
2018-12-14T23:28:05.915Z,83.93
2018-12-14T23:30:34.221Z,83.77
2018-12-14T23:33:02.444Z,84.17
2018-12-14T23:35:30.585Z,90.83
2018-12-14T23:37:58.800Z,85.20
2018-12-14T23:40:27.105Z,89.53
2018-12-14T23:42:55.368Z,81.57
2018-12-14T23:45:23.540Z,72.23
2018-12-14T23:47:51.863Z,106.23
2018-12-14T23:50:20.125Z,72.23
2018-12-14T23:52:48.346Z,229.03
2018-12-14T23:55:16.622Z,81.60
2018-12-14T23:57:44.884Z,61.70
